Kansas, OK (74347)

6:15 AM CDT en Octubre 24, 2014 (GMT -0500)
Angel Creek Ranch | Change Station
CLOSE
Current Station
Estación meteorológica personal
Location: Tahlequah, OK
Altura: 853 ft
Estaciones meteorológicas cercanas

Alt 853 ft 36.11 °N, 94.99 °W | Updated 17 seconds ago

Despejado
Despejado
47.5 ° F
Sensación térmica 48 ° F
N
0.0
Viento Variable Viento desde NE
Gusts 0.0 mph

Hoy
Alta -- | Baja -- ° F
--% Posibilidad de precipitaciones
Ayer
Alta -- | Baja -- ° F
Precip. -- pul
7:34 AM 6:31 PM
Luna nueva, 0% visible
Presión 30.14 pul
Visibilidad 5.0 Millas
Nubes Despejado
Vientos helados 48 ° F
Punto de rocío 46 ° F
Humedad 96%
Precipitaciones 0.00 pul
Espesor de la nieve No disponible.
UV 0.0 de una escala de 12
Polen 3.30 de una escala de 12
Calidad del aire No disponible.
Flu Activity No Activity
METAR KSLG 241055Z AUTO 00000KT 5SM CLR 09/06 A3014 RMK AO1

More Conditions Fewer Conditions

Presión 30.14 pul
Visibilidad 5.0 Millas
Nubes Despejado
Vientos helados 48 ° F
Punto de rocío 46 ° F
Humedad 96%
Precipitaciones 0.00 pul
Espesor de la nieve No disponible.
UV 0.0 de una escala de 12
Polen 3.30 de una escala de 12
Calidad del aire No disponible.
Flu Activity No Activity
METAR KSLG 241055Z AUTO 00000KT 5SM CLR 09/06 A3014 RMK AO1

More Conditions Fewer Conditions

10-Day Weather Forecast

Almanac

Astronomía

Oct. 24, 2014 Salida Puesta
Hora real 7:34 AM CDT 6:31 PM CDT
Crepúsculo civil 7:08 AM CDT 6:58 PM CDT
Crepúsculo náutico 6:38 AM CDT 7:28 PM CDT
Crepúsculo astronómico 6:08 AM CDT 7:57 PM CDT
Luna 8:13 AM CDT 7:13 PM CDT
Horas de luz 11h 49m
Horas de luz
10h 57m
Tomorrow will be 2m 6s shorter.
Luna nueva, 0% of the Moon is Illuminated
Hoy
Luna nueva
Oct 30
Cuarto creciente
Nov 6
Luna llena
Nov 14
Cuarto menguante
Nov 22
Nueva

Extremos de hoy

Máximos del estado Bajos del estado

Community

WunderPhotos

Upload Photos

1,764,518 ¡fotos cargadas!

WunderBlogs® & News

Nearby

Grosos de nieve

Estación Profundido Altura
No tenemos constancia de nieve nueva.

Actividad de terremotos

Ciudad Distance Mag. Tiempo y dato
No hay informes recientes de la actividad sísmica.
Magnitud mínima muestra es 2,5.

Temperaturas de aguas costeras

Lugar Temperatura
Sin partes meteorológicos de las estaciones

Estaciones meteorológicas cercanas